Time;durP1;ratioP1;P1;durP2;ratioP2;P2;SDS_P1;SDS_P2;PMS_P1;PMS_P2;Temp;Humidity;BMP_temperature;BMP_pressure;BME280_temperature;BME280_humidity;BME280_pressure;Samples;Min_cycle;Max_cycle;Signal;HPM_P1;HPM_P2
2022/01/31 00:00:36;;;;;;;;;;;22.80;22.30;;;;;;5126017;28;19923;-54
2022/01/31 00:03:02;;;;;;;;;;;22.70;22.30;;;;;;5121079;27;19985;-52
2022/01/31 00:05:28;;;;;;;;;;;22.80;22.40;;;;;;5124844;27;19929;-53
2022/01/31 00:07:54;;;;;;;;;;;22.70;22.40;;;;;;5130690;27;19923;-55
2022/01/31 00:10:27;;;;;;;;;;;22.70;22.40;;;;;;5125297;27;19933;-50
2022/01/31 00:13:01;;;;;;;;;;;22.70;22.40;;;;;;5125044;27;20064;-50
2022/01/31 00:15:27;;;;;;;;;;;22.70;22.40;;;;;;5107542;27;19924;-50
2022/01/31 00:17:52;;;;;;;;;;;22.70;22.50;;;;;;5123616;27;20283;-52
2022/01/31 00:20:18;;;;;;;;;;;22.70;22.50;;;;;;5126168;27;19931;-54
2022/01/31 00:22:44;;;;;;;;;;;22.70;22.50;;;;;;5129751;27;19937;-53
2022/01/31 00:25:10;;;;;;;;;;;22.60;22.50;;;;;;5124872;27;19923;-53
2022/01/31 00:27:36;;;;;;;;;;;22.70;22.50;;;;;;5130505;27;19976;-53
2022/01/31 00:30:02;;;;;;;;;;;22.70;22.50;;;;;;5124892;27;19927;-50
2022/01/31 00:32:29;;;;;;;;;;;22.70;22.50;;;;;;5123131;27;19923;-52
2022/01/31 00:34:58;;;;;;;;;;;22.60;22.60;;;;;;5127324;27;19975;-51
2022/01/31 00:37:24;;;;;;;;;;;22.70;22.60;;;;;;5124058;27;19979;-51
2022/01/31 00:39:50;;;;;;;;;;;22.70;22.60;;;;;;5124874;27;19924;-51
2022/01/31 00:42:16;;;;;;;;;;;22.60;22.60;;;;;;5130119;27;19931;-50
2022/01/31 00:44:49;;;;;;;;;;;22.70;22.60;;;;;;5124608;27;20367;-51
2022/01/31 00:47:21;;;;;;;;;;;22.60;22.70;;;;;;5111036;27;19931;-55
2022/01/31 00:49:52;;;;;;;;;;;22.60;22.60;;;;;;5127956;27;19928;-50
2022/01/31 00:52:18;;;;;;;;;;;22.70;22.60;;;;;;5120827;27;20010;-50
2022/01/31 00:54:44;;;;;;;;;;;22.70;22.70;;;;;;5128423;27;20055;-52
2022/01/31 00:57:10;;;;;;;;;;;22.60;22.70;;;;;;5104475;27;19923;-53
2022/01/31 00:59:35;;;;;;;;;;;22.70;22.70;;;;;;5124285;27;19923;-52
2022/01/31 01:02:01;;;;;;;;;;;22.70;22.70;;;;;;5129646;27;19931;-53
2022/01/31 01:04:27;;;;;;;;;;;22.70;22.80;;;;;;5124319;27;19934;-51
2022/01/31 01:06:53;;;;;;;;;;;22.60;22.70;;;;;;5124307;27;19946;-50
2022/01/31 01:09:18;;;;;;;;;;;22.70;22.70;;;;;;5128182;27;19931;-52
2022/01/31 01:11:44;;;;;;;;;;;22.80;22.60;;;;;;5120710;27;19927;-50
2022/01/31 01:14:10;;;;;;;;;;;22.80;22.60;;;;;;5128652;27;19924;-51
2022/01/31 01:16:36;;;;;;;;;;;22.80;22.60;;;;;;5104765;27;19924;-49
2022/01/31 01:19:02;;;;;;;;;;;22.80;22.60;;;;;;5123712;27;19935;-51
2022/01/31 01:21:28;;;;;;;;;;;22.70;22.60;;;;;;5129291;27;19942;-52
2022/01/31 01:23:54;;;;;;;;;;;22.80;22.60;;;;;;5123775;27;19923;-51
2022/01/31 01:26:20;;;;;;;;;;;22.80;22.60;;;;;;5123551;27;20283;-50
2022/01/31 01:28:46;;;;;;;;;;;22.80;22.60;;;;;;5125968;27;19936;-51
2022/01/31 01:31:12;;;;;;;;;;;22.80;22.60;;;;;;5121671;27;20337;-49
2022/01/31 01:33:40;;;;;;;;;;;22.80;22.50;;;;;;5129063;27;19923;-50
2022/01/31 01:36:07;;;;;;;;;;;22.80;22.60;;;;;;5123857;27;19931;-51
2022/01/31 01:38:33;;;;;;;;;;;22.70;22.70;;;;;;5123681;27;19927;-50
2022/01/31 01:40:59;;;;;;;;;;;22.80;22.70;;;;;;5129133;27;19923;-50
2022/01/31 01:43:25;;;;;;;;;;;22.80;22.70;;;;;;5123513;27;20347;-49
2022/01/31 01:45:51;;;;;;;;;;;22.80;22.80;;;;;;5122729;27;19923;-52
2022/01/31 01:48:17;;;;;;;;;;;22.80;22.80;;;;;;5125388;27;19923;-55
2022/01/31 01:50:43;;;;;;;;;;;22.80;22.70;;;;;;5122238;27;20333;-51
2022/01/31 01:53:09;;;;;;;;;;;22.70;22.80;;;;;;5125908;27;19932;-54
2022/01/31 01:55:34;;;;;;;;;;;22.80;22.80;;;;;;5126630;27;19930;-49
2022/01/31 01:58:00;;;;;;;;;;;22.80;22.80;;;;;;5123387;27;20306;-49
2022/01/31 02:00:28;;;;;;;;;;;22.80;22.80;;;;;;5128501;27;19929;-50
2022/01/31 02:02:54;;;;;;;;;;;22.80;22.80;;;;;;5123012;27;20135;-51
2022/01/31 02:05:19;;;;;;;;;;;22.70;22.80;;;;;;5100856;27;19924;-53
2022/01/31 02:07:45;;;;;;;;;;;22.70;22.80;;;;;;5126114;27;20035;-51
2022/01/31 02:10:11;;;;;;;;;;;22.80;22.80;;;;;;5122280;27;20366;-51
2022/01/31 02:12:38;;;;;;;;;;;22.80;22.80;;;;;;5122756;27;20321;-50
2022/01/31 02:15:04;;;;;;;;;;;22.80;22.70;;;;;;5128326;27;19927;-47
2022/01/31 02:17:29;;;;;;;;;;;22.80;22.80;;;;;;5118778;27;19927;-49
2022/01/31 02:19:55;;;;;;;;;;;22.80;22.70;;;;;;5109850;27;19931;-50
2022/01/31 02:22:21;;;;;;;;;;;22.80;22.80;;;;;;5122153;27;20479;-49
2022/01/31 02:24:47;;;;;;;;;;;22.90;22.70;;;;;;5119064;27;19980;-47
2022/01/31 02:27:13;;;;;;;;;;;22.90;22.70;;;;;;5126360;27;19931;-50
2022/01/31 02:29:38;;;;;;;;;;;23.00;22.70;;;;;;5122329;27;19930;-49
2022/01/31 02:32:04;;;;;;;;;;;22.90;22.60;;;;;;5122620;27;20577;-50
2022/01/31 02:34:30;;;;;;;;;;;23.00;22.70;;;;;;5127910;27;19927;-51
2022/01/31 02:36:56;;;;;;;;;;;23.00;22.60;;;;;;5122362;27;20794;-51
2022/01/31 02:39:22;;;;;;;;;;;23.10;22.60;;;;;;5128018;27;19927;-52
2022/01/31 02:41:48;;;;;;;;;;;23.00;22.70;;;;;;5102265;27;20224;-52
2022/01/31 02:44:15;;;;;;;;;;;23.00;22.60;;;;;;5119343;27;19930;-50
2022/01/31 02:46:48;;;;;;;;;;;23.00;22.50;;;;;;5127210;27;19924;-48
2022/01/31 02:49:15;;;;;;;;;;;23.10;22.50;;;;;;5122342;27;20310;-49
2022/01/31 02:51:46;;;;;;;;;;;23.10;22.50;;;;;;5122264;27;19927;-49
2022/01/31 02:54:11;;;;;;;;;;;23.00;22.60;;;;;;5127622;27;19923;-49
2022/01/31 02:56:40;;;;;;;;;;;23.10;22.50;;;;;;5122218;27;19927;-48
2022/01/31 02:59:06;;;;;;;;;;;23.10;22.50;;;;;;5122016;27;19941;-50
2022/01/31 03:01:35;;;;;;;;;;;23.10;22.40;;;;;;5124036;27;20392;-49
2022/01/31 03:04:01;;;;;;;;;;;23.20;22.40;;;;;;5120228;27;20399;-51
2022/01/31 03:06:26;;;;;;;;;;;23.10;22.50;;;;;;5127099;27;19945;-47
2022/01/31 03:08:52;;;;;;;;;;;23.10;22.50;;;;;;5121841;27;20383;-47
2022/01/31 03:11:18;;;;;;;;;;;23.10;22.50;;;;;;5121988;27;19934;-49
2022/01/31 03:13:44;;;;;;;;;;;23.10;22.50;;;;;;5127553;27;19934;-46
2022/01/31 03:16:09;;;;;;;;;;;23.10;22.50;;;;;;5121927;27;19976;-50
2022/01/31 03:18:35;;;;;;;;;;;23.10;22.50;;;;;;5120802;27;20555;-48
2022/01/31 03:21:01;;;;;;;;;;;23.20;22.50;;;;;;5123737;27;19931;-51
2022/01/31 03:23:27;;;;;;;;;;;23.10;22.50;;;;;;5120551;27;20420;-47
2022/01/31 03:25:53;;;;;;;;;;;23.10;22.50;;;;;;5127174;27;19923;-50
2022/01/31 03:28:18;;;;;;;;;;;23.20;22.50;;;;;;5103132;28;19930;-50
2022/01/31 03:30:44;;;;;;;;;;;23.20;22.40;;;;;;5121749;27;20001;-47
2022/01/31 03:33:10;;;;;;;;;;;23.10;22.40;;;;;;5127103;27;20443;-47
2022/01/31 03:35:36;;;;;;;;;;;23.10;22.40;;;;;;5121630;28;19930;-47
2022/01/31 03:38:01;;;;;;;;;;;23.20;22.30;;;;;;5119503;27;19931;-45
2022/01/31 03:40:27;;;;;;;;;;;23.30;22.20;;;;;;5113296;27;19923;-48
2022/01/31 03:42:53;;;;;;;;;;;23.20;22.30;;;;;;5128038;27;20410;-53
2022/01/31 03:45:19;;;;;;;;;;;23.20;22.40;;;;;;5133044;27;19931;-56
2022/01/31 03:47:46;;;;;;;;;;;23.00;22.50;;;;;;5111248;27;20398;-52
2022/01/31 03:50:13;;;;;;;;;;;23.20;22.50;;;;;;5128634;27;19952;-53
2022/01/31 03:52:38;;;;;;;;;;;23.10;22.50;;;;;;5134050;27;19963;-49
2022/01/31 03:55:05;;;;;;;;;;;23.10;22.50;;;;;;5127831;27;19939;-51
2022/01/31 03:57:31;;;;;;;;;;;23.10;22.50;;;;;;5124018;27;20014;-55
2022/01/31 03:59:57;;;;;;;;;;;23.00;22.50;;;;;;5132420;27;19927;-52
2022/01/31 04:02:23;;;;;;;;;;;23.10;22.50;;;;;;5128170;27;19927;-49
2022/01/31 04:04:48;;;;;;;;;;;23.00;22.50;;;;;;5129595;27;20378;-56
2022/01/31 04:07:14;;;;;;;;;;;23.10;22.50;;;;;;5132735;27;19937;-51
2022/01/31 04:09:40;;;;;;;;;;;23.20;22.30;;;;;;5128094;27;19923;-49
2022/01/31 04:12:06;;;;;;;;;;;23.10;22.40;;;;;;5133564;27;19932;-47
2022/01/31 04:14:32;;;;;;;;;;;23.10;22.50;;;;;;5126041;27;20291;-56
2022/01/31 04:16:59;;;;;;;;;;;23.10;22.40;;;;;;5125189;27;20381;-49
2022/01/31 04:19:25;;;;;;;;;;;23.00;22.50;;;;;;5132691;27;19928;-47
2022/01/31 04:21:51;;;;;;;;;;;23.10;22.50;;;;;;5127992;27;20894;-51
2022/01/31 04:24:23;;;;;;;;;;;23.10;22.50;;;;;;5128086;27;19923;-49
2022/01/31 04:26:59;;;;;;;;;;;23.10;22.50;;;;;;5133456;27;19924;-49
2022/01/31 04:29:28;;;;;;;;;;;23.10;22.50;;;;;;5109269;27;20018;-48
2022/01/31 04:31:54;;;;;;;;;;;23.10;22.50;;;;;;5129421;27;20422;-57
2022/01/31 04:34:20;;;;;;;;;;;23.10;22.50;;;;;;5128825;27;20302;-50
2022/01/31 04:36:46;;;;;;;;;;;23.20;22.50;;;;;;5126346;27;20401;-47
2022/01/31 04:39:17;;;;;;;;;;;23.10;22.50;;;;;;5133146;27;19927;-51
2022/01/31 04:41:43;;;;;;;;;;;23.10;22.50;;;;;;5127738;27;20375;-47
2022/01/31 04:44:09;;;;;;;;;;;23.20;22.50;;;;;;5127962;27;19975;-49
2022/01/31 04:46:35;;;;;;;;;;;23.10;22.60;;;;;;5133264;27;19950;-47
2022/01/31 04:49:01;;;;;;;;;;;23.10;22.50;;;;;;5128091;27;19923;-46
2022/01/31 04:51:27;;;;;;;;;;;23.20;22.50;;;;;;5122041;27;20187;-46
2022/01/31 04:53:53;;;;;;;;;;;23.20;22.50;;;;;;5126829;27;20290;-47
2022/01/31 04:56:19;;;;;;;;;;;23.30;22.50;;;;;;5123717;27;19934;-47
2022/01/31 04:58:44;;;;;;;;;;;23.20;22.50;;;;;;5129571;27;19946;-51
2022/01/31 05:01:10;;;;;;;;;;;23.30;22.50;;;;;;5124235;27;20022;-49
2022/01/31 05:03:36;;;;;;;;;;;23.20;22.60;;;;;;5124225;27;19924;-50
2022/01/31 05:06:02;;;;;;;;;;;23.30;22.40;;;;;;5129788;27;19983;-52
2022/01/31 05:08:29;;;;;;;;;;;23.30;22.50;;;;;;5124275;27;19927;-53
2022/01/31 05:10:55;;;;;;;;;;;23.10;22.60;;;;;;5121122;27;20281;-56
2022/01/31 05:13:21;;;;;;;;;;;23.10;22.60;;;;;;5127706;27;20362;-51
2022/01/31 05:15:53;;;;;;;;;;;23.10;22.60;;;;;;5123834;27;19924;-50
2022/01/31 05:18:20;;;;;;;;;;;23.10;22.60;;;;;;5122989;27;19933;-55
2022/01/31 05:20:46;;;;;;;;;;;23.10;22.60;;;;;;5127945;27;20375;-49
2022/01/31 05:23:11;;;;;;;;;;;23.20;22.60;;;;;;5123982;27;19923;-53
2022/01/31 05:25:37;;;;;;;;;;;23.20;22.60;;;;;;5129425;27;20231;-48
2022/01/31 05:28:03;;;;;;;;;;;23.20;22.60;;;;;;5123336;27;19923;-49
2022/01/31 05:30:29;;;;;;;;;;;23.30;22.50;;;;;;5120571;27;19923;-52
2022/01/31 05:32:55;;;;;;;;;;;23.10;22.70;;;;;;5127901;27;19931;-54
2022/01/31 05:35:23;;;;;;;;;;;23.10;22.80;;;;;;5123609;27;19930;-52
2022/01/31 05:37:49;;;;;;;;;;;23.10;22.90;;;;;;5123762;27;20292;-52
2022/01/31 05:40:15;;;;;;;;;;;23.00;22.90;;;;;;5129008;27;19924;-53
2022/01/31 05:42:41;;;;;;;;;;;23.00;22.80;;;;;;5123362;27;20366;-48
2022/01/31 05:45:07;;;;;;;;;;;23.10;22.80;;;;;;5128939;27;19936;-50
2022/01/31 05:47:35;;;;;;;;;;;23.00;22.90;;;;;;5121140;27;20026;-49
2022/01/31 05:50:02;;;;;;;;;;;23.00;22.90;;;;;;5120839;27;19946;-52
2022/01/31 05:52:28;;;;;;;;;;;23.10;22.80;;;;;;5128218;27;20390;-52
2022/01/31 05:54:53;;;;;;;;;;;23.10;22.90;;;;;;5123345;27;19924;-51
2022/01/31 05:57:19;;;;;;;;;;;23.00;22.90;;;;;;5123213;27;20145;-50
2022/01/31 05:59:45;;;;;;;;;;;23.10;22.90;;;;;;5128626;27;20418;-48
2022/01/31 06:02:10;;;;;;;;;;;23.00;23.00;;;;;;5122975;27;20302;-51
2022/01/31 06:04:36;;;;;;;;;;;23.10;22.90;;;;;;5128677;27;20335;-51
2022/01/31 06:07:02;;;;;;;;;;;23.10;22.90;;;;;;5119642;27;19923;-48
2022/01/31 06:09:30;;;;;;;;;;;23.20;22.90;;;;;;5121237;27;20438;-48
2022/01/31 06:11:56;;;;;;;;;;;23.20;23.00;;;;;;5128352;27;19923;-46
2022/01/31 06:14:22;;;;;;;;;;;23.20;23.10;;;;;;5122994;27;19931;-49
2022/01/31 06:16:48;;;;;;;;;;;23.20;23.10;;;;;;5122890;27;20169;-50
2022/01/31 06:19:13;;;;;;;;;;;23.30;22.90;;;;;;5128310;27;19934;-48
2022/01/31 06:21:39;;;;;;;;;;;23.30;23.00;;;;;;5122454;27;19923;-50
2022/01/31 06:24:09;;;;;;;;;;;23.30;23.00;;;;;;5124521;27;20327;-55
2022/01/31 06:26:38;;;;;;;;;;;23.30;23.20;;;;;;5124064;27;20319;-53
2022/01/31 06:29:04;;;;;;;;;;;23.30;23.30;;;;;;5121960;27;20584;-55
2022/01/31 06:31:30;;;;;;;;;;;23.30;23.40;;;;;;5128204;27;19930;-53
2022/01/31 06:33:57;;;;;;;;;;;23.20;23.50;;;;;;5122688;27;19927;-50
2022/01/31 06:36:23;;;;;;;;;;;23.30;23.60;;;;;;5122388;27;19924;-50
2022/01/31 06:38:49;;;;;;;;;;;23.20;23.70;;;;;;5127883;27;20050;-54
2022/01/31 06:41:17;;;;;;;;;;;23.20;23.80;;;;;;5122485;27;20397;-50
2022/01/31 06:43:43;;;;;;;;;;;23.20;23.90;;;;;;5119309;27;19938;-49
2022/01/31 06:46:09;;;;;;;;;;;23.20;24.10;;;;;;5125675;27;19923;-51
2022/01/31 06:48:35;;;;;;;;;;;23.20;24.20;;;;;;5103759;27;19980;-50
2022/01/31 06:51:01;;;;;;;;;;;23.30;24.30;;;;;;5109393;27;19923;-48
2022/01/31 06:53:28;;;;;;;;;;;23.30;24.20;;;;;;5122465;27;19943;-54
2022/01/31 06:55:54;;;;;;;;;;;23.30;24.30;;;;;;5122263;27;19927;-53
2022/01/31 06:58:21;;;;;;;;;;;23.20;24.60;;;;;;5127471;27;20022;-49
2022/01/31 07:00:46;;;;;;;;;;;23.20;24.50;;;;;;5121242;27;20070;-51
2022/01/31 07:03:13;;;;;;;;;;;23.30;24.50;;;;;;5118350;27;20449;-52
2022/01/31 07:05:39;;;;;;;;;;;23.30;24.50;;;;;;5126431;27;19957;-48
2022/01/31 07:08:06;;;;;;;;;;;23.20;24.60;;;;;;5121959;27;19928;-49
2022/01/31 07:10:32;;;;;;;;;;;23.30;24.60;;;;;;5125055;27;20290;-59
2022/01/31 07:12:59;;;;;;;;;;;23.30;24.60;;;;;;5124379;27;19946;-56
2022/01/31 07:15:25;;;;;;;;;;;23.10;24.90;;;;;;5121842;27;19923;-55
2022/01/31 07:17:50;;;;;;;;;;;23.20;24.90;;;;;;5127246;27;20259;-52
2022/01/31 07:20:28;;;;;;;;;;;23.10;25.10;;;;;;5119425;27;20251;-52
2022/01/31 07:23:02;;;;;;;;;;;23.00;25.20;;;;;;5119578;27;19931;-53
2022/01/31 07:25:36;;;;;;;;;;;23.10;25.30;;;;;;5126976;27;20027;-52
2022/01/31 07:28:03;;;;;;;;;;;23.10;25.40;;;;;;5121888;27;19923;-52
2022/01/31 07:30:29;;;;;;;;;;;23.20;25.40;;;;;;5121877;27;19927;-52
2022/01/31 07:32:54;;;;;;;;;;;23.20;25.40;;;;;;5127213;27;19937;-51
2022/01/31 07:35:21;;;;;;;;;;;23.20;25.40;;;;;;5121606;27;20017;-49
2022/01/31 07:37:46;;;;;;;;;;;23.20;25.40;;;;;;5121132;28;20404;-51
2022/01/31 07:40:12;;;;;;;;;;;23.20;25.40;;;;;;5123364;28;19935;-47
2022/01/31 07:42:38;;;;;;;;;;;23.30;25.30;;;;;;5120504;28;19928;-52
2022/01/31 07:45:04;;;;;;;;;;;23.20;25.40;;;;;;5127034;28;19950;-56
2022/01/31 07:47:30;;;;;;;;;;;23.20;25.60;;;;;;5121542;28;20301;-53
2022/01/31 07:49:57;;;;;;;;;;;23.10;25.70;;;;;;5121268;28;19938;-53
2022/01/31 07:52:23;;;;;;;;;;;23.20;25.60;;;;;;5127063;27;19924;-53
2022/01/31 07:54:49;;;;;;;;;;;23.20;25.60;;;;;;5121611;27;19928;-51
2022/01/31 07:57:16;;;;;;;;;;;23.20;25.70;;;;;;5119015;28;20220;-54
2022/01/31 07:59:42;;;;;;;;;;;23.30;25.50;;;;;;5124256;28;19935;-53
2022/01/31 08:02:08;;;;;;;;;;;23.10;25.80;;;;;;5120714;28;19972;-56
2022/01/31 08:04:34;;;;;;;;;;;23.10;25.90;;;;;;5126557;27;19923;-53
2022/01/31 08:06:59;;;;;;;;;;;23.20;25.90;;;;;;5121355;28;19940;-47
2022/01/31 08:09:25;;;;;;;;;;;22.90;26.20;;;;;;5121362;28;19924;-54
2022/01/31 08:11:51;;;;;;;;;;;23.10;26.10;;;;;;5126836;27;19931;-53
2022/01/31 08:14:18;;;;;;;;;;;23.10;26.00;;;;;;5121202;28;20459;-51
2022/01/31 08:16:44;;;;;;;;;;;23.10;26.00;;;;;;5117495;28;20334;-54
2022/01/31 08:19:10;;;;;;;;;;;23.20;25.90;;;;;;5124529;27;20010;-50
2022/01/31 08:21:36;;;;;;;;;;;23.30;25.80;;;;;;5120816;28;19924;-62
2022/01/31 08:24:02;;;;;;;;;;;23.20;26.00;;;;;;5107255;28;19923;-57
2022/01/31 08:26:28;;;;;;;;;;;23.10;26.00;;;;;;5126420;27;19933;-54
2022/01/31 08:28:57;;;;;;;;;;;23.10;26.00;;;;;;5125146;27;20937;-52
2022/01/31 08:31:28;;;;;;;;;;;23.20;26.00;;;;;;5130487;27;19923;-50
2022/01/31 08:36:23;;;;;;;;;;;23.20;25.90;;;;;;5121918;27;19930;-51
2022/01/31 08:38:50;;;;;;;;;;;23.10;26.00;;;;;;5111048;27;19930;-53
2022/01/31 08:41:16;;;;;;;;;;;23.30;25.80;;;;;;5124683;27;20024;-53
2022/01/31 08:43:42;;;;;;;;;;;23.30;25.80;;;;;;5124560;27;20010;-57
2022/01/31 08:46:08;;;;;;;;;;;23.30;25.80;;;;;;5130169;27;19963;-53
2022/01/31 08:48:34;;;;;;;;;;;23.20;25.80;;;;;;5124714;27;19939;-52
2022/01/31 08:51:00;;;;;;;;;;;23.30;25.70;;;;;;5129997;27;20036;-54
2022/01/31 08:53:26;;;;;;;;;;;23.30;25.70;;;;;;5121061;27;19923;-52
2022/01/31 08:55:53;;;;;;;;;;;23.20;25.80;;;;;;5104060;27;20374;-56
2022/01/31 08:58:18;;;;;;;;;;;23.10;25.90;;;;;;5129768;27;19924;-54
2022/01/31 09:00:48;;;;;;;;;;;23.20;25.80;;;;;;5124201;27;19929;-52
2022/01/31 09:05:39;;;;;;;;;;;23.20;25.70;;;;;;5129583;27;20295;-52
2022/01/31 09:08:05;;;;;;;;;;;23.30;25.70;;;;;;5123991;27;20290;-62
2022/01/31 09:10:31;;;;;;;;;;;23.10;25.80;;;;;;5126399;27;20369;-56
2022/01/31 09:12:57;;;;;;;;;;;23.00;25.90;;;;;;5122743;27;20383;-50
2022/01/31 09:15:23;;;;;;;;;;;23.00;25.80;;;;;;5122673;27;20393;-52
2022/01/31 09:17:48;;;;;;;;;;;23.10;25.80;;;;;;5129549;27;20379;-51
2022/01/31 09:20:14;;;;;;;;;;;23.20;25.60;;;;;;5124158;27;20002;-54
2022/01/31 09:22:42;;;;;;;;;;;23.20;25.50;;;;;;5123785;27;19944;-53
2022/01/31 09:25:08;;;;;;;;;;;23.20;25.50;;;;;;5129401;27;20283;-51
2022/01/31 09:27:34;;;;;;;;;;;23.30;25.30;;;;;;5123698;27;20797;-53
2022/01/31 09:30:00;;;;;;;;;;;23.20;25.40;;;;;;5121268;27;19923;-57
2022/01/31 09:32:25;;;;;;;;;;;23.20;25.30;;;;;;5106449;27;20023;-57
2022/01/31 09:34:51;;;;;;;;;;;23.20;25.40;;;;;;5123427;27;20331;-54
2022/01/31 09:37:19;;;;;;;;;;;23.30;25.20;;;;;;5128263;27;19930;-53
2022/01/31 09:39:46;;;;;;;;;;;23.30;25.20;;;;;;5123805;27;20019;-54
2022/01/31 09:42:15;;;;;;;;;;;23.30;25.10;;;;;;5123678;27;20324;-59
2022/01/31 09:44:49;;;;;;;;;;;23.20;25.20;;;;;;5128945;27;19934;-56
2022/01/31 09:47:25;;;;;;;;;;;23.20;25.10;;;;;;5122972;27;19981;-52
2022/01/31 09:49:51;;;;;;;;;;;23.30;25.00;;;;;;5115819;27;20325;-55
2022/01/31 09:52:19;;;;;;;;;;;23.30;24.90;;;;;;5127700;27;19966;-58
2022/01/31 09:54:48;;;;;;;;;;;23.30;24.90;;;;;;5123783;27;19930;-55
2022/01/31 09:57:15;;;;;;;;;;;23.20;24.90;;;;;;5123625;27;20176;-51
2022/01/31 09:59:41;;;;;;;;;;;23.30;24.80;;;;;;5128786;27;20310;-57
2022/01/31 10:02:10;;;;;;;;;;;23.30;24.80;;;;;;5123175;27;19931;-57
2022/01/31 10:04:36;;;;;;;;;;;23.20;24.90;;;;;;5128642;27;19923;-56
2022/01/31 10:07:02;;;;;;;;;;;23.20;24.90;;;;;;5101645;27;19930;-56
2022/01/31 10:09:31;;;;;;;;;;;23.30;24.70;;;;;;5120616;27;19987;-54
2022/01/31 10:12:19;;;;;;;;;;;23.30;24.70;;;;;;5128187;27;19933;-55
2022/01/31 10:17:30;;;;;;;;;;;23.30;24.50;;;;;;5122911;27;19927;-54
2022/01/31 10:19:56;;;;;;;;;;;23.30;24.50;;;;;;5128176;27;19932;-56
2022/01/31 10:22:23;;;;;;;;;;;23.20;24.50;;;;;;5122501;27;20018;-59
2022/01/31 10:24:50;;;;;;;;;;;23.30;24.40;;;;;;5120834;27;20419;-58
2022/01/31 10:27:22;;;;;;;;;;;23.20;24.50;;;;;;5124910;27;19928;-55
2022/01/31 10:29:48;;;;;;;;;;;23.20;24.50;;;;;;5122107;27;20666;-54
2022/01/31 10:32:22;;;;;;;;;;;23.30;24.40;;;;;;5122910;27;20225;-60
2022/01/31 10:34:51;;;;;;;;;;;23.20;24.50;;;;;;5128104;27;19928;-52
2022/01/31 10:37:19;;;;;;;;;;;23.10;24.40;;;;;;5122691;27;19968;-56
2022/01/31 10:53:15;;;;;;;;;;;23.20;24.10;;;;;;5122035;27;19943;-53
2022/01/31 10:55:41;;;;;;;;;;;23.30;24.00;;;;;;5122285;27;19981;-54
2022/01/31 10:58:08;;;;;;;;;;;23.20;24.00;;;;;;5127532;27;19924;-53
2022/01/31 11:00:34;;;;;;;;;;;23.20;24.00;;;;;;5121671;27;20386;-54
2022/01/31 11:03:00;;;;;;;;;;;23.20;23.90;;;;;;5118299;27;19932;-61
2022/01/31 11:05:26;;;;;;;;;;;23.30;23.80;;;;;;5122442;27;19995;-54
2022/01/31 11:08:12;;;;;;;;;;;23.10;24.00;;;;;;5121973;27;19924;-55
2022/01/31 11:10:37;;;;;;;;;;;23.20;23.80;;;;;;5122510;27;20022;-58
2022/01/31 11:13:03;;;;;;;;;;;23.20;23.80;;;;;;5127016;27;19923;-54
2022/01/31 11:15:29;;;;;;;;;;;23.30;23.80;;;;;;5122029;27;19924;-50
2022/01/31 11:17:55;;;;;;;;;;;23.10;23.90;;;;;;5127473;27;19924;-55
2022/01/31 11:20:21;;;;;;;;;;;23.10;23.90;;;;;;5101653;27;19923;-55
2022/01/31 11:22:48;;;;;;;;;;;23.20;24.00;;;;;;5118704;27;19951;-56
2022/01/31 11:25:18;;;;;;;;;;;23.20;23.90;;;;;;5126357;27;19923;-53
2022/01/31 11:27:44;;;;;;;;;;;23.30;23.90;;;;;;5122100;27;19923;-54
2022/01/31 11:30:15;;;;;;;;;;;23.20;24.00;;;;;;5122083;27;19934;-53
2022/01/31 11:32:42;;;;;;;;;;;23.20;24.00;;;;;;5127464;27;20453;-56
2022/01/31 11:35:09;;;;;;;;;;;23.20;23.90;;;;;;5101921;27;19967;-53
2022/01/31 11:37:40;;;;;;;;;;;23.20;23.90;;;;;;5124586;27;19930;-57
2022/01/31 11:40:09;;;;;;;;;;;23.20;23.90;;;;;;5103700;28;20346;-55
2022/01/31 11:42:36;;;;;;;;;;;23.20;23.90;;;;;;5120434;28;19953;-52
2022/01/31 11:45:13;;;;;;;;;;;23.20;23.90;;;;;;5127134;28;19923;-55
2022/01/31 11:47:39;;;;;;;;;;;23.30;23.90;;;;;;5121780;28;20248;-55
2022/01/31 11:50:07;;;;;;;;;;;23.00;24.30;;;;;;5121666;28;20001;-55
2022/01/31 11:52:41;;;;;;;;;;;23.00;24.40;;;;;;5126925;28;19931;-54
2022/01/31 11:55:08;;;;;;;;;;;23.10;24.30;;;;;;5121455;28;20010;-51
2022/01/31 11:57:34;;;;;;;;;;;23.10;24.40;;;;;;5119030;28;19924;-55
2022/01/31 12:00:01;;;;;;;;;;;23.20;24.30;;;;;;5125323;27;19930;-54
2022/01/31 12:02:30;;;;;;;;;;;23.20;24.30;;;;;;5125137;27;19935;-54
2022/01/31 12:04:59;;;;;;;;;;;23.20;24.20;;;;;;5125610;27;19924;-52
2022/01/31 12:07:42;;;;;;;;;;;23.30;24.20;;;;;;5130836;27;19958;-54
2022/01/31 12:10:08;;;;;;;;;;;23.30;24.20;;;;;;5125427;27;19935;-52
2022/01/31 12:12:46;;;;;;;;;;;23.30;24.20;;;;;;5125937;27;19971;-58
2022/01/31 12:16:00;;;;;;;;;;;23.20;24.20;;;;;;5125572;27;19924;-50
2022/01/31 12:23:40;;;;;;;;;;;23.30;24.20;;;;;;5130686;27;19987;-55
2022/01/31 12:26:25;;;;;;;;;;;23.30;24.30;;;;;;5125209;27;19924;-53
2022/01/31 12:28:54;;;;;;;;;;;23.20;24.30;;;;;;5125304;27;20379;-60
2022/01/31 12:31:23;;;;;;;;;;;23.30;24.30;;;;;;5130627;27;19928;-56
2022/01/31 12:33:49;;;;;;;;;;;23.30;24.30;;;;;;5123624;27;20401;-58
2022/01/31 12:36:33;;;;;;;;;;;23.30;24.40;;;;;;5121321;27;19923;-58
2022/01/31 12:38:59;;;;;;;;;;;23.20;24.40;;;;;;5125447;27;19934;-56
2022/01/31 12:41:32;;;;;;;;;;;23.10;24.50;;;;;;5125034;27;20013;-54
2022/01/31 12:44:16;;;;;;;;;;;23.30;24.50;;;;;;5124479;27;20009;-51
2022/01/31 12:46:51;;;;;;;;;;;23.20;24.60;;;;;;5130088;27;19946;-55
2022/01/31 12:49:18;;;;;;;;;;;23.20;24.50;;;;;;5124621;27;19952;-52
2022/01/31 12:52:13;;;;;;;;;;;23.20;24.50;;;;;;5124198;27;20452;-54
2022/01/31 12:54:39;;;;;;;;;;;23.30;24.50;;;;;;5123436;27;20357;-59
2022/01/31 12:57:06;;;;;;;;;;;23.30;24.60;;;;;;5123478;27;19967;-56
2022/01/31 12:59:32;;;;;;;;;;;23.20;24.70;;;;;;5124496;27;19934;-54
2022/01/31 13:01:58;;;;;;;;;;;23.20;24.70;;;;;;5129852;27;19924;-53
2022/01/31 13:04:24;;;;;;;;;;;23.20;24.70;;;;;;5124602;27;19929;-58
2022/01/31 13:06:51;;;;;;;;;;;23.30;24.60;;;;;;5124422;27;19934;-53
2022/01/31 13:09:23;;;;;;;;;;;23.30;24.50;;;;;;5129603;27;19924;-52
2022/01/31 13:11:50;;;;;;;;;;;23.30;24.50;;;;;;5120001;27;19952;-55
2022/01/31 13:14:17;;;;;;;;;;;23.30;24.60;;;;;;5127442;27;19927;-56
2022/01/31 13:16:51;;;;;;;;;;;23.30;24.60;;;;;;5124089;27;19931;-52
2022/01/31 13:19:18;;;;;;;;;;;23.30;24.70;;;;;;5124308;27;19924;-54
2022/01/31 13:21:43;;;;;;;;;;;23.20;24.70;;;;;;5129396;27;20378;-54
2022/01/31 13:24:10;;;;;;;;;;;23.20;24.70;;;;;;5123923;27;20011;-55
2022/01/31 13:26:52;;;;;;;;;;;23.20;24.70;;;;;;5123800;27;20022;-53
2022/01/31 13:29:33;;;;;;;;;;;23.30;24.70;;;;;;5127703;27;19933;-53
2022/01/31 13:31:59;;;;;;;;;;;23.20;24.80;;;;;;5120733;27;19923;-52
2022/01/31 13:34:41;;;;;;;;;;;23.30;24.80;;;;;;5123070;27;20046;-57
2022/01/31 13:37:25;;;;;;;;;;;23.20;24.90;;;;;;5129426;27;19923;-53
2022/01/31 13:39:55;;;;;;;;;;;23.30;24.90;;;;;;5123752;27;19928;-53
2022/01/31 13:42:23;;;;;;;;;;;23.30;24.80;;;;;;5123581;27;19938;-53
2022/01/31 13:44:51;;;;;;;;;;;23.30;24.80;;;;;;5129104;27;19923;-49
2022/01/31 13:47:17;;;;;;;;;;;23.30;24.80;;;;;;5123255;27;20446;-54
2022/01/31 13:49:50;;;;;;;;;;;23.30;24.80;;;;;;5101301;27;20022;-55
2022/01/31 13:52:16;;;;;;;;;;;23.10;24.90;;;;;;5127955;27;20893;-55
2022/01/31 13:54:42;;;;;;;;;;;23.20;24.70;;;;;;5123237;27;19923;-56
2022/01/31 13:57:10;;;;;;;;;;;23.30;24.60;;;;;;5123252;27;19924;-59
2022/01/31 13:59:35;;;;;;;;;;;23.30;24.50;;;;;;5109942;27;20420;-59
2022/01/31 14:02:11;;;;;;;;;;;23.20;24.60;;;;;;5123023;27;19944;-51
2022/01/31 14:04:39;;;;;;;;;;;23.20;24.50;;;;;;5128588;27;20321;-53
2022/01/31 14:07:05;;;;;;;;;;;23.20;24.50;;;;;;5121103;27;19927;-54
2022/01/31 14:09:34;;;;;;;;;;;23.20;24.50;;;;;;5100985;27;20426;-54
2022/01/31 14:12:00;;;;;;;;;;;23.30;24.40;;;;;;5128040;27;19930;-56
2022/01/31 14:14:28;;;;;;;;;;;23.30;24.40;;;;;;5123064;27;20240;-54
2022/01/31 14:16:54;;;;;;;;;;;23.20;24.50;;;;;;5123053;27;20018;-53
2022/01/31 14:19:20;;;;;;;;;;;23.20;24.50;;;;;;5128428;27;19930;-53
2022/01/31 14:21:46;;;;;;;;;;;23.30;24.40;;;;;;5104183;27;20010;-58
2022/01/31 14:24:13;;;;;;;;;;;23.30;24.40;;;;;;5122280;27;20458;-56
2022/01/31 14:26:40;;;;;;;;;;;23.20;24.40;;;;;;5123729;27;19934;-57
2022/01/31 14:29:09;;;;;;;;;;;23.20;24.30;;;;;;5121245;27;19971;-56
2022/01/31 14:31:36;;;;;;;;;;;23.20;24.30;;;;;;5128005;27;20018;-53
2022/01/31 14:34:05;;;;;;;;;;;23.30;24.00;;;;;;5122610;27;19930;-54
2022/01/31 14:36:52;;;;;;;;;;;23.30;24.00;;;;;;5087151;27;20896;-59
2022/01/31 14:47:18;;;;;;;;;;;23.30;23.70;;;;;;5125643;27;19924;-56
2022/01/31 14:49:45;;;;;;;;;;;23.30;23.70;;;;;;5125251;27;20387;-54
2022/01/31 14:52:11;;;;;;;;;;;23.30;23.70;;;;;;5122323;27;20010;-51